createdAt,value
2023-01-03T00:00:38.222Z,99.90
2023-01-03T00:03:02.886Z,99.90
2023-01-03T00:05:27.357Z,99.90
2023-01-03T00:07:51.780Z,99.90
2023-01-03T00:10:16.129Z,99.90
2023-01-03T00:12:39.485Z,99.90
2023-01-03T00:15:05.947Z,99.90
2023-01-03T00:17:30.640Z,99.90
2023-01-03T00:19:55.207Z,99.90
2023-01-03T00:22:19.631Z,99.90
2023-01-03T00:24:44.883Z,99.90
2023-01-03T00:27:09.478Z,99.90
2023-01-03T00:29:34.632Z,99.90
2023-01-03T00:32:00.560Z,99.90
2023-01-03T00:34:24.981Z,99.90
2023-01-03T00:36:49.388Z,99.90
2023-01-03T00:39:14.076Z,99.90
2023-01-03T00:41:38.897Z,99.90
2023-01-03T00:44:03.657Z,99.90
2023-01-03T00:46:28.118Z,99.90
2023-01-03T00:48:54.065Z,99.90
2023-01-03T00:51:20.838Z,99.90
2023-01-03T00:53:46.870Z,99.90
2023-01-03T00:56:13.742Z,99.90
2023-01-03T00:58:38.879Z,99.90
2023-01-03T01:01:06.951Z,99.90
2023-01-03T01:03:31.475Z,99.90
2023-01-03T01:05:57.235Z,99.90
2023-01-03T01:08:21.655Z,99.90
2023-01-03T01:11:04.243Z,99.90
2023-01-03T01:13:28.964Z,99.90
2023-01-03T01:15:54.650Z,99.90
2023-01-03T01:18:20.637Z,99.90
2023-01-03T01:20:45.093Z,99.90
2023-01-03T01:23:10.946Z,99.90
2023-01-03T01:25:35.959Z,99.90
2023-01-03T01:28:00.328Z,99.90
2023-01-03T01:30:24.825Z,99.90
2023-01-03T01:32:49.623Z,99.90
2023-01-03T01:35:14.195Z,99.90
2023-01-03T01:37:38.544Z,99.90
2023-01-03T01:40:04.516Z,99.90
2023-01-03T01:42:46.508Z,99.90
2023-01-03T01:45:15.304Z,99.90
2023-01-03T01:47:45.172Z,99.90
2023-01-03T01:50:19.233Z,99.90
2023-01-03T01:52:47.667Z,99.90
2023-01-03T01:55:17.470Z,99.90
2023-01-03T01:57:43.343Z,99.90
2023-01-03T02:00:10.887Z,99.90
2023-01-03T02:02:41.857Z,99.90
2023-01-03T02:05:09.898Z,99.90
2023-01-03T02:07:34.863Z,99.90
2023-01-03T02:10:00.199Z,99.90
2023-01-03T02:12:56.985Z,99.90
2023-01-03T02:15:53.130Z,99.90
2023-01-03T02:18:33.318Z,99.90
2023-01-03T02:21:15.659Z,99.90
2023-01-03T02:24:23.083Z,99.90
2023-01-03T02:26:58.652Z,99.90
2023-01-03T02:30:26.147Z,99.90
2023-01-03T02:33:02.958Z,99.90
2023-01-03T02:35:32.969Z,99.90
2023-01-03T02:38:00.000Z,99.90
2023-01-03T02:40:29.708Z,99.90
2023-01-03T02:43:02.575Z,99.90
2023-01-03T02:45:41.599Z,99.90
2023-01-03T02:48:12.869Z,99.90
2023-01-03T02:50:44.158Z,99.90
2023-01-03T02:53:13.912Z,99.90
2023-01-03T02:55:40.315Z,99.90
2023-01-03T02:58:08.242Z,99.90
2023-01-03T03:00:35.261Z,99.90
2023-01-03T03:03:02.254Z,99.90
2023-01-03T03:05:33.585Z,99.90
2023-01-03T03:07:58.139Z,99.90
2023-01-03T03:10:52.176Z,99.90
2023-01-03T03:13:24.192Z,99.90
2023-01-03T03:15:55.980Z,99.90
2023-01-03T03:18:23.965Z,99.90
2023-01-03T03:21:07.428Z,99.90
2023-01-03T03:23:53.345Z,99.90
2023-01-03T03:26:21.634Z,99.90
2023-01-03T03:28:49.947Z,99.90
2023-01-03T03:31:18.759Z,99.90
2023-01-03T03:33:46.768Z,99.90
2023-01-03T03:36:17.441Z,99.90
2023-01-03T03:38:44.728Z,99.90
2023-01-03T03:41:45.506Z,99.90
2023-01-03T03:44:37.403Z,99.90
2023-01-03T03:47:10.123Z,99.90
2023-01-03T03:49:40.558Z,99.90
2023-01-03T03:52:10.836Z,99.90
2023-01-03T03:54:38.223Z,99.90
2023-01-03T03:57:07.225Z,99.90
2023-01-03T03:59:33.561Z,99.90
2023-01-03T04:02:00.459Z,99.90
2023-01-03T04:04:30.472Z,99.90
2023-01-03T04:06:55.204Z,99.90
2023-01-03T04:09:21.400Z,99.90
2023-01-03T04:11:45.849Z,99.90
2023-01-03T04:14:10.270Z,99.90
2023-01-03T04:16:34.789Z,99.90
2023-01-03T04:18:59.209Z,99.90
2023-01-03T04:21:23.564Z,99.90
2023-01-03T04:23:47.947Z,99.90
2023-01-03T04:26:13.809Z,99.90
2023-01-03T04:28:38.220Z,99.90
2023-01-03T04:31:02.732Z,99.90
2023-01-03T04:33:27.086Z,99.90
2023-01-03T04:35:51.488Z,99.90
2023-01-03T04:38:15.859Z,99.90
2023-01-03T04:40:40.381Z,99.90
2023-01-03T04:43:23.516Z,99.90
2023-01-03T04:45:50.163Z,99.90
2023-01-03T04:48:14.648Z,99.90
2023-01-03T04:50:39.012Z,99.90
2023-01-03T04:53:03.446Z,99.90
2023-01-03T04:55:27.906Z,99.90
2023-01-03T04:57:52.273Z,99.90
2023-01-03T05:00:19.173Z,99.90
2023-01-03T05:02:43.549Z,99.90
2023-01-03T05:05:09.043Z,99.90
2023-01-03T05:07:33.469Z,99.90
2023-01-03T05:09:57.853Z,99.90
2023-01-03T05:12:22.233Z,99.90
2023-01-03T05:14:46.857Z,99.90
2023-01-03T05:17:12.724Z,99.90
2023-01-03T05:19:57.426Z,99.90
2023-01-03T05:22:39.005Z,99.90
2023-01-03T05:25:20.796Z,99.90
2023-01-03T05:27:46.413Z,99.90
2023-01-03T05:30:11.586Z,99.90
2023-01-03T05:32:37.460Z,99.90
2023-01-03T05:35:01.855Z,99.90
2023-01-03T05:37:27.639Z,99.90
2023-01-03T05:39:51.976Z,99.90
2023-01-03T05:42:16.629Z,99.90
2023-01-03T05:44:40.965Z,99.90
2023-01-03T05:47:06.439Z,99.90
2023-01-03T05:49:33.546Z,99.90
2023-01-03T05:51:57.963Z,99.90
2023-01-03T05:54:22.657Z,99.90
2023-01-03T05:56:47.220Z,99.90
2023-01-03T05:59:12.152Z,99.90
2023-01-03T06:01:36.898Z,99.90
2023-01-03T06:04:01.709Z,99.90
2023-01-03T06:06:27.895Z,99.90
2023-01-03T06:08:52.282Z,99.90
2023-01-03T06:11:17.831Z,99.90
2023-01-03T06:13:42.552Z,99.90
2023-01-03T06:16:27.523Z,99.90
2023-01-03T06:18:52.087Z,99.90
2023-01-03T06:21:16.543Z,99.90
2023-01-03T06:23:42.762Z,98.80
2023-01-03T06:26:07.528Z,99.70
2023-01-03T06:28:32.828Z,99.50
2023-01-03T06:30:57.229Z,99.20
2023-01-03T06:33:21.859Z,99.20
2023-01-03T06:35:46.195Z,98.30
2023-01-03T06:38:10.579Z,97.90
2023-01-03T06:40:40.703Z,97.30
2023-01-03T06:43:08.709Z,96.60
2023-01-03T06:45:50.364Z,95.80
2023-01-03T06:48:32.307Z,96.30
2023-01-03T06:51:14.436Z,96.40
2023-01-03T06:53:40.786Z,96.60
2023-01-03T06:56:07.021Z,96.50
2023-01-03T06:58:31.663Z,95.60
2023-01-03T07:00:57.361Z,95.20
2023-01-03T07:03:22.221Z,95.70
2023-01-03T07:05:46.585Z,95.60
2023-01-03T07:08:11.061Z,96.80
2023-01-03T07:10:35.382Z,97.10
2023-01-03T07:13:20.579Z,97.10
2023-01-03T07:15:45.410Z,97.40
2023-01-03T07:18:09.726Z,98.30
2023-01-03T07:20:34.189Z,98.60
2023-01-03T07:22:58.513Z,99.10
2023-01-03T07:25:22.923Z,98.60
2023-01-03T07:27:58.756Z,97.60
2023-01-03T07:30:29.957Z,98.00
2023-01-03T07:32:54.288Z,97.70
2023-01-03T07:35:19.021Z,98.10
2023-01-03T07:37:43.353Z,98.50
2023-01-03T07:40:09.379Z,98.80
2023-01-03T07:42:51.549Z,98.90
2023-01-03T07:45:16.403Z,99.50
2023-01-03T07:47:47.589Z,99.50
2023-01-03T07:50:12.611Z,99.50
2023-01-03T07:52:37.323Z,98.90
2023-01-03T07:55:01.773Z,97.90
2023-01-03T07:57:27.114Z,97.80
2023-01-03T07:59:51.928Z,97.30
2023-01-03T08:02:16.983Z,97.20
2023-01-03T08:04:43.051Z,96.40
2023-01-03T08:07:08.062Z,96.40
2023-01-03T08:09:49.659Z,95.80
2023-01-03T08:12:33.961Z,95.40
2023-01-03T08:14:59.069Z,96.10
2023-01-03T08:17:23.715Z,95.20
2023-01-03T08:19:49.774Z,95.20
2023-01-03T08:22:14.283Z,95.20
2023-01-03T08:24:39.149Z,96.10
2023-01-03T08:27:05.046Z,96.20
2023-01-03T08:29:29.734Z,96.40
2023-01-03T08:32:00.300Z,96.50
2023-01-03T08:34:29.763Z,96.90
2023-01-03T08:36:58.485Z,97.10
2023-01-03T08:39:28.353Z,97.60
2023-01-03T08:41:58.980Z,96.90
2023-01-03T08:44:23.414Z,97.40
2023-01-03T08:46:51.284Z,97.10
2023-01-03T08:49:16.248Z,96.90
2023-01-03T08:51:41.079Z,96.70
2023-01-03T08:54:07.050Z,97.30
2023-01-03T08:56:31.358Z,96.60
2023-01-03T08:58:57.701Z,96.60
2023-01-03T09:01:22.254Z,97.10
2023-01-03T09:03:46.760Z,97.50
2023-01-03T09:06:11.363Z,97.70
2023-01-03T09:08:36.538Z,97.30
2023-01-03T09:11:05.996Z,97.30
2023-01-03T09:13:30.875Z,97.20
2023-01-03T09:16:02.444Z,96.70
2023-01-03T09:18:26.910Z,96.90
2023-01-03T09:20:53.237Z,96.60
2023-01-03T09:23:17.568Z,96.00
2023-01-03T09:25:41.840Z,96.00
2023-01-03T09:28:07.776Z,95.40
2023-01-03T09:30:32.121Z,96.00
2023-01-03T09:32:59.345Z,96.00
2023-01-03T09:35:23.787Z,96.10
2023-01-03T09:37:49.164Z,95.80
2023-01-03T09:40:14.467Z,95.80
2023-01-03T09:42:56.775Z,95.40
2023-01-03T09:45:28.653Z,95.60
2023-01-03T09:47:53.225Z,95.40
2023-01-03T09:50:57.153Z,95.40
2023-01-03T09:53:24.882Z,95.50
2023-01-03T09:56:11.078Z,95.40
2023-01-03T09:58:52.964Z,95.30
2023-01-03T10:01:49.020Z,95.20
2023-01-03T10:04:42.555Z,94.80
2023-01-03T10:07:19.968Z,94.90
2023-01-03T10:09:50.860Z,94.40
2023-01-03T10:12:24.580Z,94.40
2023-01-03T10:15:04.479Z,94.80
2023-01-03T10:17:38.141Z,94.70
2023-01-03T10:20:27.903Z,94.70
2023-01-03T10:22:58.099Z,94.70
2023-01-03T10:25:24.947Z,94.50
2023-01-03T10:27:51.936Z,94.50
2023-01-03T10:30:19.382Z,94.50
2023-01-03T10:33:23.576Z,94.30
2023-01-03T10:35:49.621Z,94.30
2023-01-03T10:38:17.324Z,94.10
2023-01-03T10:40:45.622Z,94.20
2023-01-03T10:43:16.654Z,94.30
2023-01-03T10:45:53.986Z,94.00
2023-01-03T10:48:19.139Z,93.90
2023-01-03T10:50:43.406Z,94.00
2023-01-03T10:53:12.330Z,93.90
2023-01-03T10:55:47.051Z,94.30
2023-01-03T10:58:21.220Z,94.10
2023-01-03T11:00:45.782Z,94.00
2023-01-03T11:03:16.879Z,93.80
2023-01-03T11:05:43.270Z,93.80
2023-01-03T11:08:17.721Z,93.40
2023-01-03T11:10:53.677Z,93.20
2023-01-03T11:13:29.028Z,93.00
2023-01-03T11:15:56.170Z,92.90
2023-01-03T11:18:21.833Z,93.10
2023-01-03T11:20:51.661Z,93.20
2023-01-03T11:23:19.518Z,93.20
2023-01-03T11:26:03.953Z,92.90
2023-01-03T11:28:54.786Z,92.90
2023-01-03T11:31:39.583Z,92.80
2023-01-03T11:34:17.379Z,93.30
2023-01-03T11:36:49.995Z,93.10
2023-01-03T11:39:30.205Z,93.00
2023-01-03T11:42:22.031Z,93.10
2023-01-03T11:45:15.799Z,93.30
2023-01-03T11:47:49.169Z,93.70
2023-01-03T11:50:25.921Z,93.60
2023-01-03T11:52:57.786Z,93.60
2023-01-03T11:55:41.601Z,93.70
2023-01-03T11:58:28.707Z,93.40
2023-01-03T12:01:02.268Z,93.70
2023-01-03T12:03:38.649Z,93.60
2023-01-03T12:06:11.938Z,93.50
2023-01-03T12:08:49.733Z,93.40
2023-01-03T12:11:39.857Z,93.60
2023-01-03T12:14:11.116Z,93.90
2023-01-03T12:16:39.439Z,94.10
2023-01-03T12:19:12.603Z,94.00
2023-01-03T12:21:39.229Z,93.90
2023-01-03T12:24:12.683Z,94.10
2023-01-03T12:26:41.982Z,94.20
2023-01-03T12:29:12.871Z,94.70
2023-01-03T12:31:40.881Z,94.80
2023-01-03T12:34:18.827Z,94.90
2023-01-03T12:36:49.807Z,95.00
2023-01-03T12:39:33.631Z,95.30
2023-01-03T12:42:04.943Z,95.40
2023-01-03T12:44:35.015Z,95.50
2023-01-03T12:47:01.540Z,95.40
2023-01-03T12:49:32.887Z,95.60
2023-01-03T12:51:57.377Z,95.50
2023-01-03T12:54:35.181Z,95.40
2023-01-03T12:57:27.002Z,95.40
2023-01-03T13:00:24.195Z,95.40
2023-01-03T13:02:53.248Z,95.30
2023-01-03T13:05:23.898Z,95.40
2023-01-03T13:07:54.440Z,95.50
2023-01-03T13:10:21.855Z,95.50
2023-01-03T13:12:51.610Z,95.40
2023-01-03T13:15:27.353Z,95.50
2023-01-03T13:17:54.501Z,95.40
2023-01-03T13:20:36.556Z,95.40
2023-01-03T13:23:02.041Z,95.30
2023-01-03T13:25:41.101Z,95.30
2023-01-03T13:28:29.821Z,94.90
2023-01-03T13:31:38.178Z,96.60
2023-01-03T13:34:15.913Z,94.90
2023-01-03T13:37:16.272Z,95.10
2023-01-03T13:39:41.868Z,95.10
2023-01-03T13:42:06.956Z,95.30
2023-01-03T13:44:34.343Z,95.10
2023-01-03T13:46:59.634Z,95.30
2023-01-03T13:49:27.144Z,95.50
2023-01-03T13:51:53.108Z,95.60
2023-01-03T13:54:35.413Z,95.80
2023-01-03T13:57:05.161Z,95.90
2023-01-03T13:59:37.269Z,95.90
2023-01-03T14:02:40.580Z,95.90
2023-01-03T14:05:39.557Z,95.80
2023-01-03T14:08:23.694Z,96.00
2023-01-03T14:11:18.411Z,96.10
2023-01-03T14:13:44.960Z,96.10
2023-01-03T14:16:25.297Z,96.00
2023-01-03T14:18:59.038Z,96.20
2023-01-03T14:21:28.589Z,96.40
2023-01-03T14:24:01.174Z,96.40
2023-01-03T14:26:26.546Z,96.60
2023-01-03T14:28:54.075Z,96.60
2023-01-03T14:31:22.549Z,96.70
2023-01-03T14:33:53.358Z,96.70
2023-01-03T14:36:19.276Z,96.80
2023-01-03T14:38:49.057Z,97.00
2023-01-03T14:41:28.163Z,97.20
2023-01-03T14:44:01.176Z,97.40
2023-01-03T14:46:28.560Z,97.70
2023-01-03T14:48:56.711Z,97.70
2023-01-03T14:51:24.388Z,97.70
2023-01-03T14:53:49.102Z,98.00
2023-01-03T14:56:14.536Z,98.00
2023-01-03T14:58:42.227Z,98.30
2023-01-03T15:01:08.543Z,98.40
2023-01-03T15:03:40.692Z,98.40
2023-01-03T15:06:19.724Z,98.60
2023-01-03T15:08:45.587Z,98.60
2023-01-03T15:11:11.253Z,98.60
2023-01-03T15:13:38.652Z,98.70
2023-01-03T15:16:06.419Z,99.00
2023-01-03T15:18:34.382Z,98.90
2023-01-03T15:21:04.201Z,98.90
2023-01-03T15:23:39.043Z,99.10
2023-01-03T15:26:03.836Z,99.30
2023-01-03T15:28:30.389Z,99.70
2023-01-03T15:30:57.087Z,99.80
2023-01-03T15:33:33.344Z,99.90
2023-01-03T15:35:59.868Z,99.90
2023-01-03T15:38:34.552Z,99.90
2023-01-03T15:40:59.239Z,99.90
2023-01-03T15:43:28.689Z,99.90
2023-01-03T15:46:02.418Z,99.90
2023-01-03T15:48:28.033Z,99.90
2023-01-03T15:50:55.985Z,99.90
2023-01-03T15:53:27.403Z,99.90
2023-01-03T15:55:53.821Z,99.90
2023-01-03T15:58:18.990Z,99.90
2023-01-03T16:00:44.474Z,99.90
2023-01-03T16:03:16.198Z,99.90
2023-01-03T16:05:41.795Z,99.90
2023-01-03T16:08:12.127Z,99.90
2023-01-03T16:10:38.869Z,99.90
2023-01-03T16:13:03.401Z,99.90
2023-01-03T16:15:28.566Z,99.90
2023-01-03T16:17:53.177Z,99.90
2023-01-03T16:20:19.797Z,99.90
2023-01-03T16:22:57.674Z,99.90
2023-01-03T16:25:26.289Z,99.90
2023-01-03T16:27:52.146Z,99.90
2023-01-03T16:30:16.790Z,99.90
2023-01-03T16:32:41.577Z,99.90
2023-01-03T16:35:16.423Z,99.90
2023-01-03T16:37:40.898Z,99.90
2023-01-03T16:40:05.991Z,99.90
2023-01-03T16:42:30.919Z,99.90
2023-01-03T16:44:58.092Z,99.90
2023-01-03T16:47:24.513Z,99.90
2023-01-03T16:49:52.880Z,99.90
2023-01-03T16:52:22.477Z,99.90
2023-01-03T16:54:47.879Z,99.90
2023-01-03T16:57:18.773Z,99.90
2023-01-03T16:59:43.547Z,99.90
2023-01-03T17:02:09.659Z,99.90
2023-01-03T17:04:34.333Z,99.90
2023-01-03T17:06:59.464Z,99.90
2023-01-03T17:09:31.657Z,99.90
2023-01-03T17:11:56.202Z,99.90
2023-01-03T17:14:23.479Z,99.90
2023-01-03T17:16:48.584Z,99.90
2023-01-03T17:20:01.147Z,99.90
2023-01-03T17:22:05.043Z,99.90
2023-01-03T17:24:30.202Z,99.90
2023-01-03T17:27:00.701Z,99.90
2023-01-03T17:29:27.260Z,99.90
2023-01-03T17:31:51.857Z,99.90
2023-01-03T17:34:24.730Z,99.90
2023-01-03T17:36:50.290Z,99.90
2023-01-03T17:39:14.840Z,99.90
2023-01-03T17:41:53.151Z,99.90
2023-01-03T17:44:18.798Z,99.90
2023-01-03T17:47:01.276Z,99.90
2023-01-03T17:49:27.304Z,99.90
2023-01-03T17:51:52.839Z,99.90
2023-01-03T17:54:17.628Z,99.90
2023-01-03T17:56:42.284Z,99.90
2023-01-03T17:59:06.769Z,99.90
2023-01-03T18:01:31.340Z,99.90
2023-01-03T18:03:56.095Z,99.90
2023-01-03T18:06:25.570Z,99.90
2023-01-03T18:08:51.817Z,99.90
2023-01-03T18:11:19.111Z,99.90
2023-01-03T18:13:44.459Z,99.90
2023-01-03T18:16:13.337Z,99.90
2023-01-03T18:18:38.101Z,99.90
2023-01-03T18:21:03.359Z,99.90
2023-01-03T18:23:32.914Z,99.90
2023-01-03T18:26:00.774Z,99.90
2023-01-03T18:28:27.765Z,99.90
2023-01-03T18:30:52.268Z,99.90
2023-01-03T18:33:16.892Z,99.90
2023-01-03T18:35:41.904Z,99.90
2023-01-03T18:38:06.956Z,99.90
2023-01-03T18:40:33.368Z,99.90
2023-01-03T18:43:11.326Z,99.90
2023-01-03T18:45:36.518Z,99.90
2023-01-03T18:48:01.256Z,99.90
2023-01-03T18:50:26.676Z,99.90
2023-01-03T18:52:52.759Z,99.90
2023-01-03T18:55:20.606Z,99.90
2023-01-03T18:57:48.340Z,99.90
2023-01-03T19:00:17.904Z,99.90
2023-01-03T19:02:42.638Z,99.90
2023-01-03T19:05:08.504Z,99.90
2023-01-03T19:07:34.880Z,99.90
2023-01-03T19:10:00.213Z,99.90
2023-01-03T19:12:25.859Z,99.90
2023-01-03T19:14:52.154Z,99.90
2023-01-03T19:17:18.740Z,99.90
2023-01-03T19:19:43.570Z,99.90
2023-01-03T19:22:18.665Z,99.90
2023-01-03T19:24:45.100Z,99.90
2023-01-03T19:27:14.996Z,99.90
2023-01-03T19:29:39.669Z,99.90
2023-01-03T19:32:08.559Z,99.90
2023-01-03T19:34:33.473Z,99.90
2023-01-03T19:36:59.512Z,99.90
2023-01-03T19:39:26.252Z,99.90
2023-01-03T19:42:11.509Z,99.90
2023-01-03T19:44:36.891Z,99.90
2023-01-03T19:47:01.721Z,99.90
2023-01-03T19:49:28.343Z,99.90
2023-01-03T19:51:52.874Z,99.90
2023-01-03T19:54:17.443Z,99.90
2023-01-03T19:56:41.897Z,99.90
2023-01-03T19:59:09.256Z,99.90
2023-01-03T20:01:50.531Z,99.90
2023-01-03T20:04:19.336Z,99.90
2023-01-03T20:06:45.362Z,99.90
2023-01-03T20:09:09.868Z,99.90
2023-01-03T20:11:34.430Z,99.90
2023-01-03T20:13:59.019Z,99.90
2023-01-03T20:16:24.102Z,99.90
2023-01-03T20:18:49.104Z,99.90
2023-01-03T20:21:22.642Z,99.90
2023-01-03T20:23:51.540Z,99.90
2023-01-03T20:26:22.835Z,99.90
2023-01-03T20:28:47.477Z,99.90
2023-01-03T20:31:16.743Z,99.90
2023-01-03T20:33:45.020Z,99.90
2023-01-03T20:36:22.509Z,99.90
2023-01-03T20:38:50.811Z,99.90
2023-01-03T20:41:17.231Z,99.90
2023-01-03T20:43:42.016Z,99.90
2023-01-03T20:46:06.981Z,99.90
2023-01-03T20:48:31.947Z,99.90
2023-01-03T20:50:57.037Z,99.90
2023-01-03T20:53:23.390Z,99.90
2023-01-03T20:55:50.061Z,99.90
2023-01-03T20:58:15.483Z,99.90
2023-01-03T21:00:40.263Z,99.90
2023-01-03T21:03:04.913Z,99.90
2023-01-03T21:05:29.455Z,99.90
2023-01-03T21:08:11.001Z,99.90
2023-01-03T21:10:38.740Z,99.90
2023-01-03T21:13:04.756Z,99.90
2023-01-03T21:15:29.267Z,99.90
2023-01-03T21:17:53.725Z,99.90
2023-01-03T21:20:20.217Z,99.90
2023-01-03T21:22:44.836Z,99.90
2023-01-03T21:25:23.275Z,99.90
2023-01-03T21:27:48.427Z,99.90
2023-01-03T21:30:16.361Z,99.90
2023-01-03T21:32:40.849Z,99.90
2023-01-03T21:35:05.840Z,99.90
2023-01-03T21:37:30.548Z,99.90
2023-01-03T21:39:55.461Z,99.90
2023-01-03T21:42:37.111Z,99.90
2023-01-03T21:45:02.037Z,99.90
2023-01-03T21:47:29.221Z,99.90
2023-01-03T21:49:53.857Z,99.90
2023-01-03T21:52:18.336Z,99.90
2023-01-03T21:54:42.892Z,99.90
2023-01-03T21:57:07.419Z,99.90
2023-01-03T21:59:32.175Z,99.90
2023-01-03T22:02:13.874Z,99.90
2023-01-03T22:04:40.059Z,99.90
2023-01-03T22:07:04.636Z,99.90
2023-01-03T22:09:46.989Z,99.90
2023-01-03T22:12:14.662Z,99.90
2023-01-03T22:14:40.388Z,99.90
2023-01-03T22:17:05.001Z,99.90
2023-01-03T22:19:29.848Z,99.90
2023-01-03T22:21:55.991Z,99.90
2023-01-03T22:24:20.459Z,99.90
2023-01-03T22:26:44.994Z,99.90
2023-01-03T22:29:09.410Z,99.90
2023-01-03T22:31:34.117Z,99.90
2023-01-03T22:33:58.626Z,99.90
2023-01-03T22:36:23.183Z,99.90
2023-01-03T22:38:49.386Z,99.90
2023-01-03T22:41:15.934Z,99.90
2023-01-03T22:43:40.793Z,99.90
2023-01-03T22:46:09.604Z,99.90
2023-01-03T22:48:34.130Z,99.90
2023-01-03T22:50:58.545Z,99.90
2023-01-03T22:53:23.271Z,99.90
2023-01-03T22:55:49.360Z,99.90
2023-01-03T22:58:16.403Z,99.90
2023-01-03T23:00:40.933Z,99.90
2023-01-03T23:03:05.608Z,99.90
2023-01-03T23:05:30.190Z,99.90
2023-01-03T23:07:54.643Z,99.90
2023-01-03T23:10:19.249Z,99.90
2023-01-03T23:12:59.084Z,99.90
2023-01-03T23:15:23.769Z,99.90
2023-01-03T23:17:57.320Z,99.90
2023-01-03T23:20:21.902Z,99.90
2023-01-03T23:22:46.767Z,99.90
2023-01-03T23:25:11.987Z,99.90
2023-01-03T23:27:37.066Z,99.90
2023-01-03T23:30:03.022Z,99.90
2023-01-03T23:32:27.615Z,99.90
2023-01-03T23:34:52.515Z,99.90
2023-01-03T23:37:16.961Z,99.90
2023-01-03T23:39:41.580Z,99.90
2023-01-03T23:42:06.163Z,99.90
2023-01-03T23:44:31.003Z,99.90
2023-01-03T23:46:57.038Z,99.90
2023-01-03T23:49:21.807Z,99.90
2023-01-03T23:51:46.282Z,99.90
2023-01-03T23:54:11.333Z,99.90
2023-01-03T23:56:35.922Z,99.90
2023-01-03T23:59:00.604Z,99.90
